sensor_id;sensor_type;location;lat;lon;timestamp;temperature;humidity
16301;DHT22;8258;51.020;4.248;2023-11-21T00:01:31;7.40;99.90
16301;DHT22;8258;51.020;4.248;2023-11-21T00:03:59;7.30;99.90
16301;DHT22;8258;51.020;4.248;2023-11-21T00:06:27;7.30;99.90
16301;DHT22;8258;51.020;4.248;2023-11-21T00:08:55;7.20;99.90
16301;DHT22;8258;51.020;4.248;2023-11-21T00:11:24;7.20;99.90
16301;DHT22;8258;51.020;4.248;2023-11-21T00:13:51;7.20;99.90
16301;DHT22;8258;51.020;4.248;2023-11-21T00:16:18;7.20;99.90
16301;DHT22;8258;51.020;4.248;2023-11-21T00:18:45;7.10;99.90
16301;DHT22;8258;51.020;4.248;2023-11-21T00:21:12;7.10;99.90
16301;DHT22;8258;51.020;4.248;2023-11-21T00:23:39;7.10;99.90
16301;DHT22;8258;51.020;4.248;2023-11-21T00:26:06;7.10;99.90
16301;DHT22;8258;51.020;4.248;2023-11-21T00:28:35;7.10;99.90
16301;DHT22;8258;51.020;4.248;2023-11-21T00:31:02;7.30;99.90
16301;DHT22;8258;51.020;4.248;2023-11-21T00:33:29;7.30;99.90
16301;DHT22;8258;51.020;4.248;2023-11-21T00:35:56;7.40;99.90
16301;DHT22;8258;51.020;4.248;2023-11-21T00:38:23;7.50;99.90
16301;DHT22;8258;51.020;4.248;2023-11-21T00:40:50;7.50;99.90
16301;DHT22;8258;51.020;4.248;2023-11-21T00:43:18;7.50;99.90
16301;DHT22;8258;51.020;4.248;2023-11-21T00:45:46;7.60;99.90
16301;DHT22;8258;51.020;4.248;2023-11-21T00:48:14;7.70;99.90
16301;DHT22;8258;51.020;4.248;2023-11-21T00:50:41;7.80;99.90
16301;DHT22;8258;51.020;4.248;2023-11-21T00:53:08;7.90;99.90
16301;DHT22;8258;51.020;4.248;2023-11-21T00:55:36;7.90;99.90
16301;DHT22;8258;51.020;4.248;2023-11-21T00:58:05;7.90;99.90
16301;DHT22;8258;51.020;4.248;2023-11-21T01:00:32;8.00;99.90
16301;DHT22;8258;51.020;4.248;2023-11-21T01:03:01;7.90;99.90
16301;DHT22;8258;51.020;4.248;2023-11-21T01:05:29;8.00;99.90
16301;DHT22;8258;51.020;4.248;2023-11-21T01:07:55;8.00;99.90
16301;DHT22;8258;51.020;4.248;2023-11-21T01:10:22;8.00;99.90
16301;DHT22;8258;51.020;4.248;2023-11-21T01:12:50;8.10;99.90
16301;DHT22;8258;51.020;4.248;2023-11-21T01:15:17;8.10;99.90
16301;DHT22;8258;51.020;4.248;2023-11-21T01:17:44;8.10;99.90
16301;DHT22;8258;51.020;4.248;2023-11-21T01:20:13;8.10;99.90
16301;DHT22;8258;51.020;4.248;2023-11-21T01:22:40;8.20;99.90
16301;DHT22;8258;51.020;4.248;2023-11-21T01:25:07;8.30;99.90
16301;DHT22;8258;51.020;4.248;2023-11-21T01:27:34;8.30;99.90
16301;DHT22;8258;51.020;4.248;2023-11-21T01:30:01;8.30;99.90
16301;DHT22;8258;51.020;4.248;2023-11-21T01:32:29;8.30;99.90
16301;DHT22;8258;51.020;4.248;2023-11-21T01:34:56;8.40;99.90
16301;DHT22;8258;51.020;4.248;2023-11-21T01:37:24;8.40;99.90
16301;DHT22;8258;51.020;4.248;2023-11-21T01:39:53;8.30;99.90
16301;DHT22;8258;51.020;4.248;2023-11-21T01:42:20;8.40;99.90
16301;DHT22;8258;51.020;4.248;2023-11-21T01:44:47;8.40;99.90
16301;DHT22;8258;51.020;4.248;2023-11-21T01:47:14;8.40;99.90
16301;DHT22;8258;51.020;4.248;2023-11-21T01:49:43;8.40;99.90
16301;DHT22;8258;51.020;4.248;2023-11-21T01:52:12;8.40;99.90
16301;DHT22;8258;51.020;4.248;2023-11-21T01:54:42;8.40;99.90
16301;DHT22;8258;51.020;4.248;2023-11-21T01:57:09;8.50;99.90
16301;DHT22;8258;51.020;4.248;2023-11-21T01:59:37;8.50;99.90
16301;DHT22;8258;51.020;4.248;2023-11-21T02:02:05;8.50;99.90
16301;DHT22;8258;51.020;4.248;2023-11-21T02:04:32;8.50;99.90
16301;DHT22;8258;51.020;4.248;2023-11-21T02:07:01;8.50;99.90
16301;DHT22;8258;51.020;4.248;2023-11-21T02:09:28;8.50;99.90
16301;DHT22;8258;51.020;4.248;2023-11-21T02:11:57;8.50;99.90
16301;DHT22;8258;51.020;4.248;2023-11-21T02:14:25;8.60;99.90
16301;DHT22;8258;51.020;4.248;2023-11-21T02:16:54;8.70;99.90
16301;DHT22;8258;51.020;4.248;2023-11-21T02:19:22;8.70;99.90
16301;DHT22;8258;51.020;4.248;2023-11-21T02:21:50;8.80;99.90
16301;DHT22;8258;51.020;4.248;2023-11-21T02:24:20;8.70;99.90
16301;DHT22;8258;51.020;4.248;2023-11-21T02:26:48;8.80;99.90
16301;DHT22;8258;51.020;4.248;2023-11-21T02:29:17;8.70;99.90
16301;DHT22;8258;51.020;4.248;2023-11-21T02:31:45;8.70;99.90
16301;DHT22;8258;51.020;4.248;2023-11-21T02:34:14;8.70;99.90
16301;DHT22;8258;51.020;4.248;2023-11-21T02:36:41;8.70;99.90
16301;DHT22;8258;51.020;4.248;2023-11-21T02:39:09;8.60;99.90
16301;DHT22;8258;51.020;4.248;2023-11-21T02:41:37;8.60;99.90
16301;DHT22;8258;51.020;4.248;2023-11-21T02:44:05;8.70;99.90
16301;DHT22;8258;51.020;4.248;2023-11-21T02:46:33;8.70;99.90
16301;DHT22;8258;51.020;4.248;2023-11-21T02:49:00;8.70;99.90
16301;DHT22;8258;51.020;4.248;2023-11-21T02:51:27;8.70;99.90
16301;DHT22;8258;51.020;4.248;2023-11-21T02:53:54;8.70;99.90
16301;DHT22;8258;51.020;4.248;2023-11-21T02:56:24;8.70;99.90
16301;DHT22;8258;51.020;4.248;2023-11-21T02:58:55;8.70;99.90
16301;DHT22;8258;51.020;4.248;2023-11-21T03:01:22;8.80;99.90
16301;DHT22;8258;51.020;4.248;2023-11-21T03:03:50;8.80;99.90
16301;DHT22;8258;51.020;4.248;2023-11-21T03:06:17;8.70;99.90
16301;DHT22;8258;51.020;4.248;2023-11-21T03:08:45;8.70;99.90
16301;DHT22;8258;51.020;4.248;2023-11-21T03:11:12;8.80;99.90
16301;DHT22;8258;51.020;4.248;2023-11-21T03:13:39;8.80;99.90
16301;DHT22;8258;51.020;4.248;2023-11-21T03:16:09;8.80;99.90
16301;DHT22;8258;51.020;4.248;2023-11-21T03:18:37;8.80;99.90
16301;DHT22;8258;51.020;4.248;2023-11-21T03:21:04;8.80;99.90
16301;DHT22;8258;51.020;4.248;2023-11-21T03:23:31;8.90;99.90
16301;DHT22;8258;51.020;4.248;2023-11-21T03:25:58;8.90;99.90
16301;DHT22;8258;51.020;4.248;2023-11-21T03:28:25;8.90;99.90
16301;DHT22;8258;51.020;4.248;2023-11-21T03:30:53;8.90;99.90
16301;DHT22;8258;51.020;4.248;2023-11-21T03:33:22;9.00;99.90
16301;DHT22;8258;51.020;4.248;2023-11-21T03:35:49;9.10;99.90
16301;DHT22;8258;51.020;4.248;2023-11-21T03:38:16;9.00;99.90
16301;DHT22;8258;51.020;4.248;2023-11-21T03:40:43;9.10;99.90
16301;DHT22;8258;51.020;4.248;2023-11-21T03:43:09;9.00;99.90
16301;DHT22;8258;51.020;4.248;2023-11-21T03:45:37;9.00;99.90
16301;DHT22;8258;51.020;4.248;2023-11-21T03:48:06;9.00;99.90
16301;DHT22;8258;51.020;4.248;2023-11-21T03:50:34;9.00;99.90
16301;DHT22;8258;51.020;4.248;2023-11-21T03:53:01;9.00;99.90
16301;DHT22;8258;51.020;4.248;2023-11-21T03:55:29;9.00;99.90
16301;DHT22;8258;51.020;4.248;2023-11-21T03:57:57;9.10;99.90
16301;DHT22;8258;51.020;4.248;2023-11-21T04:00:24;9.00;99.90
16301;DHT22;8258;51.020;4.248;2023-11-21T04:02:52;9.00;99.90
16301;DHT22;8258;51.020;4.248;2023-11-21T04:05:20;9.00;99.90
16301;DHT22;8258;51.020;4.248;2023-11-21T04:07:48;9.00;99.90
16301;DHT22;8258;51.020;4.248;2023-11-21T04:10:15;9.00;99.90
16301;DHT22;8258;51.020;4.248;2023-11-21T04:12:42;9.00;99.90
16301;DHT22;8258;51.020;4.248;2023-11-21T04:15:11;9.10;99.90
16301;DHT22;8258;51.020;4.248;2023-11-21T04:17:39;9.10;99.90
16301;DHT22;8258;51.020;4.248;2023-11-21T04:20:07;9.20;99.90
16301;DHT22;8258;51.020;4.248;2023-11-21T04:22:36;9.10;99.90
16301;DHT22;8258;51.020;4.248;2023-11-21T04:25:08;9.10;99.90
16301;DHT22;8258;51.020;4.248;2023-11-21T04:27:36;9.20;99.90
16301;DHT22;8258;51.020;4.248;2023-11-21T04:30:04;9.20;99.90
16301;DHT22;8258;51.020;4.248;2023-11-21T04:32:32;9.20;99.90
16301;DHT22;8258;51.020;4.248;2023-11-21T04:34:59;9.20;99.90
16301;DHT22;8258;51.020;4.248;2023-11-21T04:37:26;9.20;99.90
16301;DHT22;8258;51.020;4.248;2023-11-21T04:39:53;9.30;99.90
16301;DHT22;8258;51.020;4.248;2023-11-21T04:42:21;9.20;99.90
16301;DHT22;8258;51.020;4.248;2023-11-21T04:44:48;9.10;99.90
16301;DHT22;8258;51.020;4.248;2023-11-21T04:47:15;9.20;99.90
16301;DHT22;8258;51.020;4.248;2023-11-21T04:49:46;9.20;99.90
16301;DHT22;8258;51.020;4.248;2023-11-21T04:52:13;9.20;99.90
16301;DHT22;8258;51.020;4.248;2023-11-21T04:54:40;9.20;99.90
16301;DHT22;8258;51.020;4.248;2023-11-21T04:57:08;9.30;99.90
16301;DHT22;8258;51.020;4.248;2023-11-21T04:59:36;9.20;99.90
16301;DHT22;8258;51.020;4.248;2023-11-21T05:02:04;9.20;99.90
16301;DHT22;8258;51.020;4.248;2023-11-21T05:04:31;9.30;99.90
16301;DHT22;8258;51.020;4.248;2023-11-21T05:06:59;9.20;99.90
16301;DHT22;8258;51.020;4.248;2023-11-21T05:09:27;9.20;99.90
16301;DHT22;8258;51.020;4.248;2023-11-21T05:11:57;9.20;99.90
16301;DHT22;8258;51.020;4.248;2023-11-21T05:14:25;9.10;99.90
16301;DHT22;8258;51.020;4.248;2023-11-21T05:16:54;9.10;99.90
16301;DHT22;8258;51.020;4.248;2023-11-21T05:19:21;9.10;99.90
16301;DHT22;8258;51.020;4.248;2023-11-21T05:21:48;9.20;99.90
16301;DHT22;8258;51.020;4.248;2023-11-21T05:24:15;9.20;99.90
16301;DHT22;8258;51.020;4.248;2023-11-21T05:26:42;9.20;99.90
16301;DHT22;8258;51.020;4.248;2023-11-21T05:29:09;9.20;99.90
16301;DHT22;8258;51.020;4.248;2023-11-21T05:31:36;9.20;99.90
16301;DHT22;8258;51.020;4.248;2023-11-21T05:34:05;9.30;99.90
16301;DHT22;8258;51.020;4.248;2023-11-21T05:36:31;9.30;99.90
16301;DHT22;8258;51.020;4.248;2023-11-21T05:38:59;9.30;99.90
16301;DHT22;8258;51.020;4.248;2023-11-21T05:41:26;9.20;99.90
16301;DHT22;8258;51.020;4.248;2023-11-21T05:43:53;9.20;99.90
16301;DHT22;8258;51.020;4.248;2023-11-21T05:46:20;9.20;99.90
16301;DHT22;8258;51.020;4.248;2023-11-21T05:48:47;9.30;99.90
16301;DHT22;8258;51.020;4.248;2023-11-21T05:51:15;9.30;99.90
16301;DHT22;8258;51.020;4.248;2023-11-21T05:53:43;9.30;99.90
16301;DHT22;8258;51.020;4.248;2023-11-21T05:56:10;9.30;99.90
16301;DHT22;8258;51.020;4.248;2023-11-21T05:58:37;9.30;99.90
16301;DHT22;8258;51.020;4.248;2023-11-21T06:01:06;9.30;99.90
16301;DHT22;8258;51.020;4.248;2023-11-21T06:03:35;9.30;99.90
16301;DHT22;8258;51.020;4.248;2023-11-21T06:06:03;9.20;99.90
16301;DHT22;8258;51.020;4.248;2023-11-21T06:08:32;9.20;99.90
16301;DHT22;8258;51.020;4.248;2023-11-21T06:10:58;9.20;99.90
16301;DHT22;8258;51.020;4.248;2023-11-21T06:13:26;9.20;99.90
16301;DHT22;8258;51.020;4.248;2023-11-21T06:15:53;9.20;99.90
16301;DHT22;8258;51.020;4.248;2023-11-21T06:18:20;9.10;99.90
16301;DHT22;8258;51.020;4.248;2023-11-21T06:20:47;9.20;99.90
16301;DHT22;8258;51.020;4.248;2023-11-21T06:23:14;9.20;99.90
16301;DHT22;8258;51.020;4.248;2023-11-21T06:25:43;9.20;99.90
16301;DHT22;8258;51.020;4.248;2023-11-21T06:28:10;9.30;99.90
16301;DHT22;8258;51.020;4.248;2023-11-21T06:30:37;9.30;99.90
16301;DHT22;8258;51.020;4.248;2023-11-21T06:33:04;9.30;99.90
16301;DHT22;8258;51.020;4.248;2023-11-21T06:35:32;9.30;99.90
16301;DHT22;8258;51.020;4.248;2023-11-21T06:38:00;9.40;99.90
16301;DHT22;8258;51.020;4.248;2023-11-21T06:40:28;9.40;99.90
16301;DHT22;8258;51.020;4.248;2023-11-21T06:42:56;9.40;99.90
16301;DHT22;8258;51.020;4.248;2023-11-21T06:45:24;9.40;99.90
16301;DHT22;8258;51.020;4.248;2023-11-21T06:47:51;9.40;99.90
16301;DHT22;8258;51.020;4.248;2023-11-21T06:50:18;9.40;99.90
16301;DHT22;8258;51.020;4.248;2023-11-21T06:52:45;9.40;99.90
16301;DHT22;8258;51.020;4.248;2023-11-21T06:55:12;9.40;99.90
16301;DHT22;8258;51.020;4.248;2023-11-21T06:57:39;9.40;99.90
16301;DHT22;8258;51.020;4.248;2023-11-21T07:00:09;9.40;99.90
16301;DHT22;8258;51.020;4.248;2023-11-21T07:02:37;9.40;99.90
16301;DHT22;8258;51.020;4.248;2023-11-21T07:05:04;9.50;99.90
16301;DHT22;8258;51.020;4.248;2023-11-21T07:07:31;9.50;99.90
16301;DHT22;8258;51.020;4.248;2023-11-21T07:10:01;9.50;99.90
16301;DHT22;8258;51.020;4.248;2023-11-21T07:12:29;9.50;99.90
16301;DHT22;8258;51.020;4.248;2023-11-21T07:14:56;9.60;99.90
16301;DHT22;8258;51.020;4.248;2023-11-21T07:17:25;9.50;99.90
16301;DHT22;8258;51.020;4.248;2023-11-21T07:19:52;9.50;99.90
16301;DHT22;8258;51.020;4.248;2023-11-21T07:22:18;9.50;99.90
16301;DHT22;8258;51.020;4.248;2023-11-21T07:24:48;9.50;99.90
16301;DHT22;8258;51.020;4.248;2023-11-21T07:27:16;9.50;99.90
16301;DHT22;8258;51.020;4.248;2023-11-21T07:29:43;9.60;99.90
16301;DHT22;8258;51.020;4.248;2023-11-21T07:32:10;9.60;99.90
16301;DHT22;8258;51.020;4.248;2023-11-21T07:34:40;9.60;99.90
16301;DHT22;8258;51.020;4.248;2023-11-21T07:37:06;9.60;99.90
16301;DHT22;8258;51.020;4.248;2023-11-21T07:39:34;9.60;99.90
16301;DHT22;8258;51.020;4.248;2023-11-21T07:42:01;9.60;99.90
16301;DHT22;8258;51.020;4.248;2023-11-21T07:44:28;9.70;99.90
16301;DHT22;8258;51.020;4.248;2023-11-21T07:46:55;9.70;99.90
16301;DHT22;8258;51.020;4.248;2023-11-21T07:49:23;9.70;99.90
16301;DHT22;8258;51.020;4.248;2023-11-21T07:51:52;9.70;99.90
16301;DHT22;8258;51.020;4.248;2023-11-21T07:54:19;9.70;99.90
16301;DHT22;8258;51.020;4.248;2023-11-21T07:56:47;9.80;99.90
16301;DHT22;8258;51.020;4.248;2023-11-21T07:59:13;9.70;99.90
16301;DHT22;8258;51.020;4.248;2023-11-21T08:01:40;9.70;99.90
16301;DHT22;8258;51.020;4.248;2023-11-21T08:04:08;9.80;99.90
16301;DHT22;8258;51.020;4.248;2023-11-21T08:06:35;9.80;99.90
16301;DHT22;8258;51.020;4.248;2023-11-21T08:09:04;9.80;99.90
16301;DHT22;8258;51.020;4.248;2023-11-21T08:11:33;9.80;99.90
16301;DHT22;8258;51.020;4.248;2023-11-21T08:14:00;9.90;99.90
16301;DHT22;8258;51.020;4.248;2023-11-21T08:16:27;10.00;99.90
16301;DHT22;8258;51.020;4.248;2023-11-21T08:18:54;10.10;99.90
16301;DHT22;8258;51.020;4.248;2023-11-21T08:21:22;10.00;99.90
16301;DHT22;8258;51.020;4.248;2023-11-21T08:23:50;10.00;99.90
16301;DHT22;8258;51.020;4.248;2023-11-21T08:26:21;10.00;99.90
16301;DHT22;8258;51.020;4.248;2023-11-21T08:28:49;10.10;99.90
16301;DHT22;8258;51.020;4.248;2023-11-21T08:31:22;10.10;99.90
16301;DHT22;8258;51.020;4.248;2023-11-21T08:33:49;10.10;99.90
16301;DHT22;8258;51.020;4.248;2023-11-21T08:36:16;10.10;99.90
16301;DHT22;8258;51.020;4.248;2023-11-21T08:38:43;10.20;99.90
16301;DHT22;8258;51.020;4.248;2023-11-21T08:41:10;10.30;99.90
16301;DHT22;8258;51.020;4.248;2023-11-21T08:43:39;10.40;99.90
16301;DHT22;8258;51.020;4.248;2023-11-21T08:46:06;10.30;99.90
16301;DHT22;8258;51.020;4.248;2023-11-21T08:48:35;10.30;99.90
16301;DHT22;8258;51.020;4.248;2023-11-21T08:51:02;10.30;99.90
16301;DHT22;8258;51.020;4.248;2023-11-21T08:53:30;10.30;99.90
16301;DHT22;8258;51.020;4.248;2023-11-21T08:55:57;10.20;99.90
16301;DHT22;8258;51.020;4.248;2023-11-21T08:58:24;10.30;99.90
16301;DHT22;8258;51.020;4.248;2023-11-21T09:00:52;10.40;99.90
16301;DHT22;8258;51.020;4.248;2023-11-21T09:03:19;10.40;99.90
16301;DHT22;8258;51.020;4.248;2023-11-21T09:05:47;10.50;99.90
16301;DHT22;8258;51.020;4.248;2023-11-21T09:08:14;10.70;99.90
16301;DHT22;8258;51.020;4.248;2023-11-21T09:10:41;10.80;99.90
16301;DHT22;8258;51.020;4.248;2023-11-21T09:13:08;10.80;99.90
16301;DHT22;8258;51.020;4.248;2023-11-21T09:15:36;10.80;99.90
16301;DHT22;8258;51.020;4.248;2023-11-21T09:18:04;10.60;99.90
16301;DHT22;8258;51.020;4.248;2023-11-21T09:20:31;10.60;99.90
16301;DHT22;8258;51.020;4.248;2023-11-21T09:22:58;10.70;99.90
16301;DHT22;8258;51.020;4.248;2023-11-21T09:25:25;10.70;99.90
16301;DHT22;8258;51.020;4.248;2023-11-21T09:27:54;10.70;99.90
16301;DHT22;8258;51.020;4.248;2023-11-21T09:30:22;10.70;99.90
16301;DHT22;8258;51.020;4.248;2023-11-21T09:32:50;10.70;99.90
16301;DHT22;8258;51.020;4.248;2023-11-21T09:35:18;10.70;99.90
16301;DHT22;8258;51.020;4.248;2023-11-21T09:37:45;10.90;99.90
16301;DHT22;8258;51.020;4.248;2023-11-21T09:40:12;10.90;99.90
16301;DHT22;8258;51.020;4.248;2023-11-21T09:42:47;10.90;99.90
16301;DHT22;8258;51.020;4.248;2023-11-21T09:45:21;11.20;99.90
16301;DHT22;8258;51.020;4.248;2023-11-21T09:47:51;11.70;99.90
16301;DHT22;8258;51.020;4.248;2023-11-21T09:50:20;12.10;99.90
16301;DHT22;8258;51.020;4.248;2023-11-21T09:52:54;12.20;99.90
16301;DHT22;8258;51.020;4.248;2023-11-21T09:55:24;12.10;99.90
16301;DHT22;8258;51.020;4.248;2023-11-21T09:57:54;12.00;99.90
16301;DHT22;8258;51.020;4.248;2023-11-21T10:00:23;12.10;99.90
16301;DHT22;8258;51.020;4.248;2023-11-21T10:02:51;12.10;99.90
16301;DHT22;8258;51.020;4.248;2023-11-21T10:05:20;12.00;99.90
16301;DHT22;8258;51.020;4.248;2023-11-21T10:07:49;11.90;99.90
16301;DHT22;8258;51.020;4.248;2023-11-21T10:10:18;11.90;99.90
16301;DHT22;8258;51.020;4.248;2023-11-21T10:12:49;11.80;99.90
16301;DHT22;8258;51.020;4.248;2023-11-21T10:15:21;11.80;99.90
16301;DHT22;8258;51.020;4.248;2023-11-21T10:17:50;11.70;99.90
16301;DHT22;8258;51.020;4.248;2023-11-21T10:20:20;11.80;99.90
16301;DHT22;8258;51.020;4.248;2023-11-21T10:22:47;11.90;99.90
16301;DHT22;8258;51.020;4.248;2023-11-21T10:25:16;12.00;99.90
16301;DHT22;8258;51.020;4.248;2023-11-21T11:22:23;11.70;99.90
16301;DHT22;8258;51.020;4.248;2023-11-21T11:40:40;11.50;99.90
16301;DHT22;8258;51.020;4.248;2023-11-21T11:43:07;11.40;99.90
16301;DHT22;8258;51.020;4.248;2023-11-21T11:45:35;11.40;99.90
16301;DHT22;8258;51.020;4.248;2023-11-21T11:48:06;11.30;99.90
16301;DHT22;8258;51.020;4.248;2023-11-21T11:50:33;11.20;99.90
16301;DHT22;8258;51.020;4.248;2023-11-21T11:53:13;11.20;99.90
16301;DHT22;8258;51.020;4.248;2023-11-21T11:55:41;11.10;99.90
16301;DHT22;8258;51.020;4.248;2023-11-21T11:58:08;11.20;99.90
16301;DHT22;8258;51.020;4.248;2023-11-21T12:00:36;11.20;99.90
16301;DHT22;8258;51.020;4.248;2023-11-21T13:05:23;11.40;99.90
16301;DHT22;8258;51.020;4.248;2023-11-21T13:07:50;11.50;99.90
16301;DHT22;8258;51.020;4.248;2023-11-21T13:10:21;11.50;99.90
16301;DHT22;8258;51.020;4.248;2023-11-21T13:12:52;11.60;99.90
16301;DHT22;8258;51.020;4.248;2023-11-21T13:15:20;11.60;99.90
16301;DHT22;8258;51.020;4.248;2023-11-21T13:17:47;11.60;99.90
16301;DHT22;8258;51.020;4.248;2023-11-21T13:20:17;11.70;99.90
16301;DHT22;8258;51.020;4.248;2023-11-21T13:22:49;11.70;99.90
16301;DHT22;8258;51.020;4.248;2023-11-21T13:25:19;11.70;99.90
16301;DHT22;8258;51.020;4.248;2023-11-21T13:32:57;11.70;99.90
16301;DHT22;8258;51.020;4.248;2023-11-21T13:35:28;11.70;99.90
16301;DHT22;8258;51.020;4.248;2023-11-21T13:38:04;11.70;99.90
16301;DHT22;8258;51.020;4.248;2023-11-21T13:40:32;11.50;99.90
16301;DHT22;8258;51.020;4.248;2023-11-21T13:43:08;11.50;99.90
16301;DHT22;8258;51.020;4.248;2023-11-21T13:45:35;11.50;99.90
16301;DHT22;8258;51.020;4.248;2023-11-21T13:48:02;11.40;99.90
16301;DHT22;8258;51.020;4.248;2023-11-21T13:50:34;11.40;99.90
16301;DHT22;8258;51.020;4.248;2023-11-21T13:53:01;11.50;99.90
16301;DHT22;8258;51.020;4.248;2023-11-21T13:55:30;11.70;99.90
16301;DHT22;8258;51.020;4.248;2023-11-21T13:57:57;11.70;99.90
16301;DHT22;8258;51.020;4.248;2023-11-21T14:00:25;11.70;99.90
16301;DHT22;8258;51.020;4.248;2023-11-21T14:03:10;11.70;99.90
16301;DHT22;8258;51.020;4.248;2023-11-21T14:05:45;11.70;99.90
16301;DHT22;8258;51.020;4.248;2023-11-21T14:08:17;11.70;99.90
16301;DHT22;8258;51.020;4.248;2023-11-21T14:10:46;11.70;99.90
16301;DHT22;8258;51.020;4.248;2023-11-21T14:13:19;11.70;99.90
16301;DHT22;8258;51.020;4.248;2023-11-21T14:15:49;11.70;99.90
16301;DHT22;8258;51.020;4.248;2023-11-21T14:18:18;11.70;99.90
16301;DHT22;8258;51.020;4.248;2023-11-21T14:20:54;11.70;99.90
16301;DHT22;8258;51.020;4.248;2023-11-21T14:23:21;11.70;99.90
16301;DHT22;8258;51.020;4.248;2023-11-21T14:25:49;11.60;99.90
16301;DHT22;8258;51.020;4.248;2023-11-21T14:28:17;11.60;99.90
16301;DHT22;8258;51.020;4.248;2023-11-21T14:30:45;11.60;99.90
16301;DHT22;8258;51.020;4.248;2023-11-21T14:33:12;11.50;99.90
16301;DHT22;8258;51.020;4.248;2023-11-21T14:35:39;11.40;99.90
16301;DHT22;8258;51.020;4.248;2023-11-21T14:38:07;11.40;99.90
16301;DHT22;8258;51.020;4.248;2023-11-21T14:40:35;11.30;99.90
16301;DHT22;8258;51.020;4.248;2023-11-21T14:43:03;11.20;99.90
16301;DHT22;8258;51.020;4.248;2023-11-21T14:45:31;11.10;99.90
16301;DHT22;8258;51.020;4.248;2023-11-21T14:47:58;11.10;99.90
16301;DHT22;8258;51.020;4.248;2023-11-21T14:50:35;11.10;99.90
16301;DHT22;8258;51.020;4.248;2023-11-21T14:53:19;11.10;99.90
16301;DHT22;8258;51.020;4.248;2023-11-21T14:56:09;11.10;99.90
16301;DHT22;8258;51.020;4.248;2023-11-21T14:58:35;11.10;99.90
16301;DHT22;8258;51.020;4.248;2023-11-21T15:01:04;11.10;99.90
16301;DHT22;8258;51.020;4.248;2023-11-21T15:03:31;11.10;99.90
16301;DHT22;8258;51.020;4.248;2023-11-21T15:06:09;11.10;99.90
16301;DHT22;8258;51.020;4.248;2023-11-21T15:08:49;11.00;99.90
16301;DHT22;8258;51.020;4.248;2023-11-21T15:11:21;11.00;99.90
16301;DHT22;8258;51.020;4.248;2023-11-21T15:13:53;11.00;99.90
16301;DHT22;8258;51.020;4.248;2023-11-21T15:16:20;10.90;99.90
16301;DHT22;8258;51.020;4.248;2023-11-21T15:18:46;10.90;99.90
16301;DHT22;8258;51.020;4.248;2023-11-21T15:21:13;10.90;99.90
16301;DHT22;8258;51.020;4.248;2023-11-21T15:23:40;11.00;99.90
16301;DHT22;8258;51.020;4.248;2023-11-21T15:26:09;11.00;99.90
16301;DHT22;8258;51.020;4.248;2023-11-21T15:28:36;11.00;99.90
16301;DHT22;8258;51.020;4.248;2023-11-21T15:31:03;11.00;99.90
16301;DHT22;8258;51.020;4.248;2023-11-21T15:33:30;11.00;99.90
16301;DHT22;8258;51.020;4.248;2023-11-21T15:35:57;11.00;99.90
16301;DHT22;8258;51.020;4.248;2023-11-21T15:38:25;11.00;99.90
16301;DHT22;8258;51.020;4.248;2023-11-21T15:40:51;11.00;99.90
16301;DHT22;8258;51.020;4.248;2023-11-21T15:43:21;10.90;99.90
16301;DHT22;8258;51.020;4.248;2023-11-21T15:45:48;10.90;99.90
16301;DHT22;8258;51.020;4.248;2023-11-21T15:48:15;10.90;99.90
16301;DHT22;8258;51.020;4.248;2023-11-21T15:50:42;10.90;99.90
16301;DHT22;8258;51.020;4.248;2023-11-21T15:53:09;10.90;99.90
16301;DHT22;8258;51.020;4.248;2023-11-21T15:55:36;10.80;99.90
16301;DHT22;8258;51.020;4.248;2023-11-21T15:58:08;10.70;99.90
16301;DHT22;8258;51.020;4.248;2023-11-21T16:00:36;10.70;99.90
16301;DHT22;8258;51.020;4.248;2023-11-21T16:03:03;10.70;99.90
16301;DHT22;8258;51.020;4.248;2023-11-21T16:05:30;10.70;99.90
16301;DHT22;8258;51.020;4.248;2023-11-21T16:07:57;10.60;99.90
16301;DHT22;8258;51.020;4.248;2023-11-21T16:10:24;10.60;99.90
16301;DHT22;8258;51.020;4.248;2023-11-21T16:12:51;10.60;99.90
16301;DHT22;8258;51.020;4.248;2023-11-21T16:15:18;10.50;99.90
16301;DHT22;8258;51.020;4.248;2023-11-21T16:17:47;10.50;99.90
16301;DHT22;8258;51.020;4.248;2023-11-21T16:20:14;10.50;99.90
16301;DHT22;8258;51.020;4.248;2023-11-21T16:22:41;10.50;99.90
16301;DHT22;8258;51.020;4.248;2023-11-21T16:25:09;10.50;99.90
16301;DHT22;8258;51.020;4.248;2023-11-21T16:27:39;10.50;99.90
16301;DHT22;8258;51.020;4.248;2023-11-21T16:30:07;10.50;99.90
16301;DHT22;8258;51.020;4.248;2023-11-21T16:32:35;10.50;99.90
16301;DHT22;8258;51.020;4.248;2023-11-21T16:35:04;10.50;99.90
16301;DHT22;8258;51.020;4.248;2023-11-21T16:37:32;10.50;99.90
16301;DHT22;8258;51.020;4.248;2023-11-21T16:39:59;10.50;99.90
16301;DHT22;8258;51.020;4.248;2023-11-21T16:42:26;10.60;99.90
16301;DHT22;8258;51.020;4.248;2023-11-21T16:44:56;10.50;99.90
16301;DHT22;8258;51.020;4.248;2023-11-21T16:47:22;10.50;99.90
16301;DHT22;8258;51.020;4.248;2023-11-21T16:49:51;10.50;99.90
16301;DHT22;8258;51.020;4.248;2023-11-21T16:52:19;10.60;99.90
16301;DHT22;8258;51.020;4.248;2023-11-21T16:54:48;10.60;99.90
16301;DHT22;8258;51.020;4.248;2023-11-21T16:57:16;10.60;99.90
16301;DHT22;8258;51.020;4.248;2023-11-21T16:59:43;10.50;99.90
16301;DHT22;8258;51.020;4.248;2023-11-21T17:02:16;10.50;99.90
16301;DHT22;8258;51.020;4.248;2023-11-21T17:04:43;10.50;99.90
16301;DHT22;8258;51.020;4.248;2023-11-21T17:07:14;10.50;99.90
16301;DHT22;8258;51.020;4.248;2023-11-21T17:09:43;10.50;99.90
16301;DHT22;8258;51.020;4.248;2023-11-21T17:12:09;10.50;99.90
16301;DHT22;8258;51.020;4.248;2023-11-21T17:14:36;10.50;99.90
16301;DHT22;8258;51.020;4.248;2023-11-21T17:17:05;10.50;99.90
16301;DHT22;8258;51.020;4.248;2023-11-21T17:19:34;10.50;99.90
16301;DHT22;8258;51.020;4.248;2023-11-21T17:22:01;10.40;99.90
16301;DHT22;8258;51.020;4.248;2023-11-21T17:24:28;10.50;99.90
16301;DHT22;8258;51.020;4.248;2023-11-21T17:26:56;10.50;99.90
16301;DHT22;8258;51.020;4.248;2023-11-21T17:29:23;10.40;99.90
16301;DHT22;8258;51.020;4.248;2023-11-21T17:31:51;10.40;99.90
16301;DHT22;8258;51.020;4.248;2023-11-21T17:34:18;10.40;99.90
16301;DHT22;8258;51.020;4.248;2023-11-21T17:36:45;10.30;99.90
16301;DHT22;8258;51.020;4.248;2023-11-21T17:39:13;10.30;99.90
16301;DHT22;8258;51.020;4.248;2023-11-21T17:41:40;10.40;99.90
16301;DHT22;8258;51.020;4.248;2023-11-21T17:44:09;10.30;99.90
16301;DHT22;8258;51.020;4.248;2023-11-21T17:46:36;10.30;99.90
16301;DHT22;8258;51.020;4.248;2023-11-21T17:49:03;10.30;99.90
16301;DHT22;8258;51.020;4.248;2023-11-21T17:51:30;10.30;99.90
16301;DHT22;8258;51.020;4.248;2023-11-21T17:53:57;10.30;99.90
16301;DHT22;8258;51.020;4.248;2023-11-21T17:56:27;10.30;99.90
16301;DHT22;8258;51.020;4.248;2023-11-21T17:58:54;10.30;99.90
16301;DHT22;8258;51.020;4.248;2023-11-21T18:01:23;10.20;99.90
16301;DHT22;8258;51.020;4.248;2023-11-21T18:03:58;10.30;99.90
16301;DHT22;8258;51.020;4.248;2023-11-21T18:06:25;10.30;99.90
16301;DHT22;8258;51.020;4.248;2023-11-21T18:08:52;10.30;99.90
16301;DHT22;8258;51.020;4.248;2023-11-21T18:11:19;10.30;99.90
16301;DHT22;8258;51.020;4.248;2023-11-21T18:13:46;10.20;99.90
16301;DHT22;8258;51.020;4.248;2023-11-21T18:16:14;10.20;99.90
16301;DHT22;8258;51.020;4.248;2023-11-21T18:18:43;10.20;99.90